Time;durP1;ratioP1;P1;durP2;ratioP2;P2;SDS_P1;SDS_P2;PMS_P1;PMS_P2;Temp;Humidity;BMP_temperature;BMP_pressure;BME280_temperature;BME280_humidity;BME280_pressure;Samples;Min_cycle;Max_cycle;Signal;HPM_P1;HPM_P2
2022/03/26 00:01:03;;;;;;;36.57;23.83;;;9.60;99.90;;;;;;5000517;28;20448;-77
2022/03/26 00:03:30;;;;;;;31.07;22.10;;;9.60;99.90;;;;;;4997952;28;20430;-78
2022/03/26 00:05:59;;;;;;;33.90;22.90;;;9.50;99.90;;;;;;4997858;28;20423;-78
2022/03/26 00:08:25;;;;;;;30.10;20.23;;;9.50;99.90;;;;;;4997534;28;20501;-78
2022/03/26 00:10:52;;;;;;;36.87;23.37;;;9.50;99.90;;;;;;4997639;28;20492;-77
2022/03/26 00:13:20;;;;;;;31.73;22.60;;;10.00;99.90;;;;;;4997226;28;20479;-78
2022/03/26 00:15:46;;;;;;;33.47;21.00;;;9.50;99.90;;;;;;4996696;28;20959;-78
2022/03/26 00:18:15;;;;;;;30.77;22.10;;;9.50;99.90;;;;;;4996880;28;20446;-78
2022/03/26 00:20:42;;;;;;;28.80;19.10;;;9.50;99.90;;;;;;4996530;28;20951;-77
2022/03/26 00:23:10;;;;;;;33.63;22.23;;;9.50;99.90;;;;;;4996877;28;20527;-78
2022/03/26 00:25:37;;;;;;;30.73;21.30;;;9.50;99.90;;;;;;4997201;28;20505;-77
2022/03/26 00:28:04;;;;;;;34.23;23.27;;;9.50;99.90;;;;;;4998619;28;20833;-78
2022/03/26 00:30:31;;;;;;;36.07;22.50;;;9.50;99.90;;;;;;4999163;28;20970;-78
2022/03/26 00:32:58;;;;;;;32.67;21.00;;;9.50;99.90;;;;;;4999529;28;20515;-77
2022/03/26 00:35:24;;;;;;;30.77;21.10;;;9.50;99.90;;;;;;5000424;28;20536;-77
2022/03/26 00:37:52;;;;;;;39.27;22.30;;;9.30;99.90;;;;;;5004023;28;20476;-76
2022/03/26 00:40:21;;;;;;;38.33;21.40;;;9.20;99.90;;;;;;5000821;28;20462;-77
2022/03/26 00:42:48;;;;;;;32.10;21.50;;;9.20;99.90;;;;;;4997366;28;20431;-77
2022/03/26 00:45:14;;;;;;;31.27;20.97;;;9.10;99.90;;;;;;4996967;28;21009;-77
2022/03/26 00:47:41;;;;;;;34.60;22.50;;;9.10;99.90;;;;;;4996573;28;20754;-78
2022/03/26 00:50:10;;;;;;;33.90;20.67;;;9.10;99.90;;;;;;4996169;28;20486;-78
2022/03/26 00:52:37;;;;;;;29.63;20.50;;;9.10;99.90;;;;;;4996062;28;20663;-77
2022/03/26 00:55:04;;;;;;;36.63;20.63;;;9.10;99.90;;;;;;4997493;28;20540;-77
2022/03/26 00:57:32;;;;;;;30.47;21.23;;;9.00;99.90;;;;;;4996481;28;20499;-77
2022/03/26 00:59:59;;;;;;;30.97;19.70;;;9.00;99.90;;;;;;4996863;28;20536;-77
2022/03/26 01:02:26;;;;;;;30.00;19.70;;;9.00;99.90;;;;;;4996086;28;20866;-76
2022/03/26 01:04:52;;;;;;;32.60;19.47;;;9.00;99.90;;;;;;4995959;28;20452;-77
2022/03/26 01:07:19;;;;;;;28.67;19.97;;;9.20;99.90;;;;;;4995392;28;20430;-77
2022/03/26 01:09:46;;;;;;;31.77;20.67;;;9.00;99.90;;;;;;4995496;28;20509;-77
2022/03/26 01:12:12;;;;;;;32.33;20.87;;;9.00;99.90;;;;;;4996871;28;20516;-76
2022/03/26 01:14:40;;;;;;;31.07;21.47;;;9.00;99.90;;;;;;4996968;28;20588;-76
2022/03/26 01:17:07;;;;;;;32.17;21.40;;;8.90;99.90;;;;;;4995956;28;20859;-76
2022/03/26 01:19:34;;;;;;;35.00;20.33;;;8.90;99.90;;;;;;4996492;28;20468;-77
2022/03/26 01:22:00;;;;;;;34.60;21.30;;;8.80;99.90;;;;;;4997063;28;20924;-78
2022/03/26 01:24:27;;;;;;;31.70;21.30;;;8.80;99.90;;;;;;4995825;28;20425;-77
2022/03/26 01:26:53;;;;;;;40.33;22.60;;;8.70;99.90;;;;;;4995208;28;20543;-77
2022/03/26 01:29:20;;;;;;;33.07;21.53;;;8.70;99.90;;;;;;4995385;28;20528;-78
2022/03/26 01:31:48;;;;;;;40.17;20.80;;;8.70;99.90;;;;;;4995240;28;20479;-77
2022/03/26 01:34:14;;;;;;;29.60;19.33;;;8.60;99.90;;;;;;4994969;28;20515;-78
2022/03/26 01:36:41;;;;;;;30.07;19.60;;;8.60;99.90;;;;;;4997149;28;20448;-77
2022/03/26 01:39:08;;;;;;;35.53;20.50;;;8.60;99.90;;;;;;4996155;28;20478;-76
2022/03/26 01:41:35;;;;;;;34.13;20.73;;;8.60;99.90;;;;;;4996730;28;20451;-77
2022/03/26 01:44:01;;;;;;;32.03;20.37;;;8.60;99.90;;;;;;4996174;28;20444;-77
2022/03/26 01:46:28;;;;;;;33.73;20.70;;;8.80;99.90;;;;;;4996367;28;20836;-77
2022/03/26 01:48:56;;;;;;;23.17;19.27;;;8.70;99.90;;;;;;4995306;28;20509;-79
2022/03/26 01:51:22;;;;;;;32.37;19.40;;;8.70;99.90;;;;;;4996094;28;20469;-76
2022/03/26 01:53:52;;;;;;;30.23;20.23;;;8.60;99.90;;;;;;4996063;28;20515;-78
2022/03/26 01:56:21;;;;;;;30.67;20.37;;;8.60;99.90;;;;;;4998082;28;20475;-77
2022/03/26 01:58:48;;;;;;;31.20;20.90;;;8.60;99.90;;;;;;5018694;23;20485;-79
2022/03/26 02:01:15;;;;;;;25.67;19.13;;;8.60;99.90;;;;;;5016530;28;20414;-80
2022/03/26 02:03:42;;;;;;;38.83;21.33;;;8.60;99.90;;;;;;5002383;28;20415;-80
2022/03/26 02:06:10;;;;;;;34.27;21.30;;;8.50;99.90;;;;;;5003858;28;20459;-80
2022/03/26 02:08:36;;;;;;;32.63;20.90;;;8.50;99.90;;;;;;5002831;28;20461;-82
2022/03/26 02:11:04;;;;;;;30.27;20.70;;;8.50;99.90;;;;;;5003356;28;20437;-81
2022/03/26 02:13:48;;;;;;;33.77;21.80;;;8.60;99.90;;;;;;5003305;28;20481;-82
2022/03/26 02:16:15;;;;;;;36.37;21.60;;;8.40;99.90;;;;;;5006732;28;20434;-80
2022/03/26 02:18:42;;;;;;;31.80;20.60;;;8.40;99.90;;;;;;5009752;28;20468;-81
2022/03/26 02:21:10;;;;;;;36.53;22.50;;;8.40;99.90;;;;;;5005696;28;20446;-82
2022/03/26 02:23:37;;;;;;;32.23;21.50;;;8.30;99.90;;;;;;5007770;28;20452;-82
2022/03/26 02:26:04;;;;;;;23.93;18.33;;;8.30;99.90;;;;;;5004473;28;20450;-81
2022/03/26 02:28:31;;;;;;;34.40;22.30;;;8.30;99.90;;;;;;5004181;28;20430;-81
2022/03/26 02:30:58;;;;;;;30.60;21.07;;;8.40;99.90;;;;;;5004752;28;20450;-80
2022/03/26 02:33:24;;;;;;;34.90;22.07;;;8.40;99.90;;;;;;5005322;28;20513;-81
2022/03/26 02:35:51;;;;;;;41.60;23.03;;;8.50;99.90;;;;;;5006546;28;20425;-80
2022/03/26 02:38:19;;;;;;;41.00;21.33;;;8.50;99.90;;;;;;4999695;28;20510;-79
2022/03/26 02:40:46;;;;;;;36.23;21.97;;;8.50;99.90;;;;;;5003844;28;20462;-79
2022/03/26 02:43:12;;;;;;;39.80;21.87;;;8.50;99.90;;;;;;5004127;28;20419;-81
2022/03/26 02:45:44;;;;;;;33.90;22.60;;;8.40;99.90;;;;;;5002451;28;20431;-79
2022/03/26 02:48:12;;;;;;;38.10;22.70;;;8.40;99.90;;;;;;5005744;28;20471;-81
2022/03/26 02:50:39;;;;;;;35.93;22.20;;;8.30;99.90;;;;;;5009434;28;20435;-79
2022/03/26 02:53:06;;;;;;;36.20;22.40;;;8.30;99.90;;;;;;5009473;28;20526;-79
2022/03/26 02:55:35;;;;;;;40.43;23.30;;;8.20;99.90;;;;;;5003030;28;20446;-80
2022/03/26 02:58:01;;;;;;;33.73;20.80;;;8.20;99.90;;;;;;5003033;28;21008;-80
2022/03/26 03:00:28;;;;;;;34.90;21.87;;;8.20;99.90;;;;;;5007584;28;20421;-82
2022/03/26 03:02:55;;;;;;;32.33;21.63;;;8.20;99.90;;;;;;5006348;28;20442;-81
2022/03/26 03:05:21;;;;;;;41.13;22.07;;;8.20;99.90;;;;;;5005497;28;20425;-79
2022/03/26 03:07:48;;;;;;;33.90;21.80;;;8.20;99.90;;;;;;5005672;28;20426;-81
2022/03/26 03:10:16;;;;;;;38.00;23.00;;;8.20;99.90;;;;;;5005521;28;20458;-81
2022/03/26 03:12:45;;;;;;;36.03;21.33;;;8.20;99.90;;;;;;5003874;28;20454;-81
2022/03/26 03:15:15;;;;;;;42.87;23.37;;;8.20;99.90;;;;;;5003389;28;20469;-83
2022/03/26 03:17:42;;;;;;;36.70;21.87;;;8.20;99.90;;;;;;5004571;28;20441;-82
2022/03/26 03:20:11;;;;;;;33.63;22.47;;;8.10;99.90;;;;;;5009028;28;20462;-82
2022/03/26 03:22:38;;;;;;;35.70;20.70;;;8.20;99.90;;;;;;5011622;28;20523;-80
2022/03/26 03:25:07;;;;;;;33.00;21.80;;;8.20;99.90;;;;;;5011862;28;20424;-80
2022/03/26 03:27:34;;;;;;;34.10;20.90;;;8.10;99.90;;;;;;5009700;28;20786;-82
2022/03/26 03:30:02;;;;;;;42.70;23.67;;;8.10;99.90;;;;;;5003898;28;20487;-82
2022/03/26 03:32:28;;;;;;;40.13;23.57;;;8.00;99.90;;;;;;5010801;28;20424;-82
2022/03/26 03:34:56;;;;;;;42.50;22.40;;;8.00;99.90;;;;;;5009472;28;20450;-82
2022/03/26 03:37:23;;;;;;;38.20;22.47;;;7.90;99.90;;;;;;5005406;28;20868;-81
2022/03/26 03:39:50;;;;;;;34.53;23.13;;;7.90;99.90;;;;;;5005567;28;20439;-82
2022/03/26 03:42:16;;;;;;;36.50;21.63;;;7.90;99.90;;;;;;5006686;28;20424;-80
2022/03/26 03:44:44;;;;;;;37.63;23.85;;;7.90;99.90;;;;;;5009177;28;20446;-80
2022/03/26 03:47:12;;;;;;;37.10;22.67;;;7.80;99.90;;;;;;5008070;28;20212;-80
2022/03/26 03:49:39;;;;;;;33.80;22.97;;;7.80;99.90;;;;;;5008856;28;20473;-80
2022/03/26 03:52:06;;;;;;;38.90;24.40;;;7.70;99.90;;;;;;5008912;28;20447;-80
2022/03/26 03:54:33;;;;;;;35.67;22.00;;;7.70;99.90;;;;;;5009208;28;20456;-80
2022/03/26 03:56:59;;;;;;;38.40;23.70;;;7.70;99.90;;;;;;5010014;28;20440;-81
2022/03/26 03:59:26;;;;;;;41.93;23.90;;;7.70;99.90;;;;;;5012765;28;20456;-81
2022/03/26 04:01:52;;;;;;;35.80;23.10;;;7.60;99.90;;;;;;5010913;28;20472;-80
2022/03/26 04:04:20;;;;;;;37.57;22.20;;;7.60;99.90;;;;;;5008596;28;20423;-80
2022/03/26 04:06:47;;;;;;;36.43;23.93;;;7.50;99.90;;;;;;5010166;28;20428;-79
2022/03/26 04:09:13;;;;;;;38.93;24.23;;;7.60;99.90;;;;;;5012857;28;20479;-79
2022/03/26 04:11:40;;;;;;;40.80;24.33;;;7.60;99.90;;;;;;5008833;28;20420;-78
2022/03/26 04:14:07;;;;;;;41.27;25.23;;;7.50;99.90;;;;;;5012711;28;20451;-79
2022/03/26 04:16:34;;;;;;;35.77;23.50;;;7.50;99.90;;;;;;5015606;28;20453;-78
2022/03/26 04:19:00;;;;;;;37.88;24.85;;;7.40;99.90;;;;;;5010038;28;20891;-79
2022/03/26 04:21:28;;;;;;;43.45;24.95;;;7.40;99.90;;;;;;5012889;28;20456;-81
2022/03/26 04:23:55;;;;;;;38.13;23.87;;;7.40;99.90;;;;;;5008175;28;20208;-80
2022/03/26 04:26:22;;;;;;;38.27;25.60;;;7.30;99.90;;;;;;5006927;28;20812;-80
2022/03/26 04:28:48;;;;;;;35.40;23.80;;;7.30;99.90;;;;;;5005684;28;20440;-80
2022/03/26 04:31:15;;;;;;;42.30;23.88;;;7.40;99.90;;;;;;5007838;28;20461;-81
2022/03/26 04:33:41;;;;;;;50.97;25.50;;;7.30;99.90;;;;;;5007946;28;20206;-81
2022/03/26 04:36:08;;;;;;;35.27;24.00;;;7.30;99.90;;;;;;5007508;28;20423;-81
2022/03/26 04:38:36;;;;;;;43.97;24.27;;;7.30;99.90;;;;;;5011471;28;20443;-80
2022/03/26 04:41:03;;;;;;;43.83;27.40;;;7.20;99.90;;;;;;5007403;28;20438;-80
2022/03/26 04:43:29;;;;;;;40.57;26.93;;;7.20;99.90;;;;;;5006603;28;20415;-80
2022/03/26 04:45:56;;;;;;;42.50;26.03;;;7.20;99.90;;;;;;5015479;28;20428;-80
2022/03/26 04:48:22;;;;;;;36.05;23.58;;;7.10;99.90;;;;;;5021276;28;20449;-78
2022/03/26 04:50:49;;;;;;;41.33;25.30;;;7.10;99.90;;;;;;5021333;28;20220;-79
2022/03/26 04:53:16;;;;;;;42.67;26.27;;;7.10;99.90;;;;;;5021293;28;20209;-78
2022/03/26 04:55:44;;;;;;;44.65;25.55;;;7.10;99.90;;;;;;5019963;28;20444;-78
2022/03/26 04:58:10;;;;;;;41.78;27.25;;;7.50;99.90;;;;;;5020442;28;20428;-81
2022/03/26 05:00:37;;;;;;;44.57;25.40;;;7.20;99.90;;;;;;5012057;28;20194;-79
2022/03/26 05:03:03;;;;;;;37.57;25.37;;;7.20;99.90;;;;;;5009047;28;20431;-80
2022/03/26 05:05:30;;;;;;;40.67;24.80;;;7.20;99.90;;;;;;5007536;28;20460;-80
2022/03/26 05:07:59;;;;;;;40.03;24.63;;;7.10;99.90;;;;;;5007353;28;20459;-82
2022/03/26 05:10:28;;;;;;;44.77;25.80;;;7.10;99.90;;;;;;5007007;28;20434;-82
2022/03/26 05:12:58;;;;;;;44.77;24.80;;;7.20;99.90;;;;;;5008406;28;20426;-80
2022/03/26 05:15:27;;;;;;;44.25;24.20;;;7.10;99.90;;;;;;5011520;28;20549;-80
2022/03/26 05:17:55;;;;;;;51.47;27.30;;;7.00;99.90;;;;;;5008589;28;20211;-82
2022/03/26 05:20:23;;;;;;;52.60;27.20;;;7.10;99.90;;;;;;5012108;28;20452;-82
2022/03/26 05:22:50;;;;;;;49.43;27.73;;;7.10;99.90;;;;;;5011644;28;20208;-81
2022/03/26 05:25:18;;;;;;;47.80;29.23;;;7.10;99.90;;;;;;5009932;28;20420;-82
2022/03/26 05:27:45;;;;;;;51.17;27.52;;;7.00;99.90;;;;;;5009154;28;20226;-81
2022/03/26 05:30:14;;;;;;;39.40;27.50;;;7.00;99.90;;;;;;5010228;28;20206;-81
2022/03/26 05:32:40;;;;;;;43.17;26.27;;;7.10;99.90;;;;;;5009477;28;20217;-82
2022/03/26 05:35:11;;;;;;;47.25;27.60;;;7.10;99.90;;;;;;5008322;28;20222;-82
2022/03/26 05:37:38;;;;;;;43.17;27.03;;;;;;;;;;5005970;28;20194;-79
2022/03/26 05:40:07;;;;;;;44.40;27.33;;;7.20;99.90;;;;;;5005078;28;20431;-83
2022/03/26 05:42:34;;;;;;;45.15;26.35;;;7.10;99.90;;;;;;5006501;28;20548;-82
2022/03/26 05:45:01;;;;;;;48.97;29.53;;;7.20;99.90;;;;;;5009842;28;20198;-82
2022/03/26 05:47:30;;;;;;;47.67;27.63;;;7.20;99.90;;;;;;5011513;28;20463;-82
2022/03/26 05:49:57;;;;;;;46.93;28.00;;;7.20;99.90;;;;;;5010357;28;20226;-80
2022/03/26 05:52:23;;;;;;;42.63;25.93;;;7.20;99.90;;;;;;5009790;28;20475;-81
2022/03/26 05:54:50;;;;;;;50.63;31.60;;;7.20;99.90;;;;;;5005695;28;20988;-82
2022/03/26 05:57:17;;;;;;;48.83;28.20;;;7.30;99.90;;;;;;5005317;28;20458;-82
2022/03/26 05:59:44;;;;;;;44.93;27.20;;;7.40;99.90;;;;;;5003305;28;20968;-81
2022/03/26 06:02:12;;;;;;;43.30;28.70;;;7.40;99.90;;;;;;5005564;28;20428;-79
2022/03/26 06:04:40;;;;;;;49.70;30.80;;;7.50;99.90;;;;;;5003528;28;21015;-81
2022/03/26 06:07:07;;;;;;;47.70;29.80;;;7.60;99.90;;;;;;5003944;28;20435;-80
2022/03/26 06:09:34;;;;;;;41.57;27.33;;;7.60;99.90;;;;;;5003439;28;20447;-82
2022/03/26 06:12:00;;;;;;;45.47;31.07;;;7.70;99.90;;;;;;5004591;28;20530;-82
2022/03/26 06:14:27;;;;;;;51.63;29.10;;;7.70;99.90;;;;;;5004026;28;20516;-82
2022/03/26 06:16:53;;;;;;;44.93;28.90;;;7.70;99.90;;;;;;5003819;28;20412;-82
2022/03/26 06:19:20;;;;;;;50.40;27.70;;;7.70;99.90;;;;;;5002374;28;20467;-87
2022/03/26 06:21:48;;;;;;;46.07;30.43;;;7.80;99.90;;;;;;5003611;28;20419;-82
2022/03/26 06:24:14;;;;;;;46.93;27.70;;;7.80;99.90;;;;;;5003737;28;20449;-82
2022/03/26 06:26:44;;;;;;;44.70;25.60;;;8.00;99.90;;;;;;5004690;28;20424;-82
2022/03/26 06:29:12;;;;;;;45.70;28.80;;;8.00;99.90;;;;;;5004175;28;20478;-83
2022/03/26 06:31:39;;;;;;;45.23;26.93;;;8.10;99.90;;;;;;5003958;28;20423;-84
2022/03/26 06:34:06;;;;;;;43.90;27.80;;;8.20;99.90;;;;;;5002702;28;20424;-81
2022/03/26 06:36:33;;;;;;;45.07;28.50;;;8.20;99.90;;;;;;5012147;28;20427;-79
2022/03/26 06:39:01;;;;;;;44.07;25.50;;;8.30;99.90;;;;;;4998843;28;20440;-80
2022/03/26 06:41:28;;;;;;;41.43;24.87;;;8.40;99.90;;;;;;4999905;28;20430;-80
2022/03/26 06:43:54;;;;;;;42.83;26.77;;;8.50;99.90;;;;;;5004587;28;20429;-83
2022/03/26 06:46:21;;;;;;;41.93;27.83;;;8.50;99.90;;;;;;5001679;28;20501;-82
2022/03/26 06:48:48;;;;;;;44.13;26.33;;;8.50;99.90;;;;;;5003949;28;20820;-82
2022/03/26 06:51:14;;;;;;;45.00;28.37;;;8.60;99.90;;;;;;5004961;28;20425;-81
2022/03/26 06:53:41;;;;;;;45.43;26.10;;;8.70;99.90;;;;;;5002514;28;20448;-82
2022/03/26 06:56:09;;;;;;;39.47;25.37;;;8.70;99.90;;;;;;5003073;28;20461;-82
2022/03/26 06:58:38;;;;;;;39.17;25.67;;;8.80;99.90;;;;;;5002515;28;20483;-81
2022/03/26 07:01:05;;;;;;;41.83;24.30;;;8.90;99.90;;;;;;5003848;28;20463;-82
2022/03/26 07:03:32;;;;;;;42.80;25.97;;;9.10;99.90;;;;;;5001383;28;20422;-81
2022/03/26 07:05:58;;;;;;;42.07;26.40;;;9.30;99.90;;;;;;5000262;28;20445;-81
2022/03/26 07:08:27;;;;;;;38.97;23.80;;;9.30;99.90;;;;;;4998592;28;20507;-79
2022/03/26 07:10:54;;;;;;;43.47;24.37;;;9.50;99.90;;;;;;5001279;28;20455;-81
2022/03/26 07:13:22;;;;;;;40.87;24.80;;;9.60;99.90;;;;;;5005763;28;20459;-79
2022/03/26 07:15:49;;;;;;;35.67;22.20;;;9.60;99.90;;;;;;5007194;28;20462;-81
2022/03/26 07:18:16;;;;;;;38.27;24.50;;;9.70;99.90;;;;;;5006680;28;20442;-82
2022/03/26 07:20:42;;;;;;;38.47;23.10;;;9.70;99.90;;;;;;5003707;28;20893;-80
2022/03/26 07:23:09;;;;;;;39.97;22.47;;;9.80;99.90;;;;;;5005773;28;20446;-81
2022/03/26 07:25:36;;;;;;;34.30;23.60;;;9.90;99.90;;;;;;5005549;28;20449;-82
2022/03/26 07:28:03;;;;;;;40.13;25.70;;;10.00;99.90;;;;;;5000705;28;20463;-80
2022/03/26 07:30:32;;;;;;;32.87;22.53;;;10.10;99.90;;;;;;5009315;28;20482;-80
2022/03/26 07:33:00;;;;;;;40.53;22.97;;;10.20;99.90;;;;;;5001421;28;20473;-80
2022/03/26 07:35:26;;;;;;;45.33;25.80;;;10.20;99.90;;;;;;4999097;28;20458;-80
2022/03/26 07:37:53;;;;;;;38.80;23.97;;;10.10;99.90;;;;;;4998426;28;20423;-80
2022/03/26 07:40:21;;;;;;;39.20;23.87;;;10.30;99.90;;;;;;5011846;28;20422;-79
2022/03/26 07:42:48;;;;;;;39.20;23.27;;;10.40;99.90;;;;;;5018416;28;20448;-80
2022/03/26 07:45:14;;;;;;;37.77;24.30;;;10.40;99.90;;;;;;5018625;28;20443;-81
2022/03/26 07:47:42;;;;;;;36.90;24.17;;;10.50;99.90;;;;;;5017436;28;20462;-80
2022/03/26 07:50:10;;;;;;;37.97;23.40;;;10.40;99.90;;;;;;5018608;28;20428;-81
2022/03/26 07:52:38;;;;;;;36.60;23.43;;;10.50;99.90;;;;;;5009981;28;20787;-81
2022/03/26 07:55:06;;;;;;;42.67;22.03;;;10.50;99.90;;;;;;5000488;28;20846;-80
2022/03/26 07:57:33;;;;;;;37.63;22.23;;;10.60;99.90;;;;;;4997320;28;20488;-81
2022/03/26 08:00:00;;;;;;;39.83;24.93;;;10.90;99.90;;;;;;5063672;23;20472;-83
2022/03/26 08:02:28;;;;;;;32.57;22.80;;;;;;;;;;5016168;28;20484;-83
2022/03/26 08:04:55;;;;;;;38.37;23.30;;;10.80;99.90;;;;;;5016487;28;20426;-83
2022/03/26 08:07:22;;;;;;;37.37;23.23;;;10.90;99.90;;;;;;5015295;28;20499;-83
2022/03/26 08:09:49;;;;;;;36.00;25.20;;;11.00;99.90;;;;;;5013392;28;20443;-83
2022/03/26 08:12:16;;;;;;;42.33;24.03;;;11.00;99.90;;;;;;5013300;28;20851;-81
2022/03/26 08:14:42;;;;;;;33.70;21.40;;;11.20;99.90;;;;;;5016885;28;20439;-81
2022/03/26 08:17:10;;;;;;;34.17;22.90;;;11.50;99.90;;;;;;5016883;28;20444;-81
2022/03/26 08:19:37;;;;;;;36.93;22.87;;;11.70;99.90;;;;;;5007121;28;20528;-81
2022/03/26 08:22:05;;;;;;;44.10;23.20;;;11.60;99.90;;;;;;5013977;28;20456;-82
2022/03/26 08:24:32;;;;;;;32.17;21.80;;;11.50;99.90;;;;;;5010378;28;20423;-82
2022/03/26 08:26:59;;;;;;;39.37;23.33;;;11.60;99.90;;;;;;5007516;28;20530;-82
2022/03/26 08:29:25;;;;;;;39.63;24.70;;;11.60;99.90;;;;;;5009764;28;20509;-81
2022/03/26 08:31:52;;;;;;;32.50;22.10;;;11.60;99.90;;;;;;5012823;28;20444;-81
2022/03/26 08:34:19;;;;;;;28.63;21.90;;;11.70;99.90;;;;;;5014769;28;20427;-81
2022/03/26 08:36:46;;;;;;;36.77;20.60;;;11.80;99.90;;;;;;5009212;28;20490;-81
2022/03/26 08:39:13;;;;;;;35.43;22.00;;;11.90;99.90;;;;;;5008449;28;20872;-81
2022/03/26 08:41:40;;;;;;;26.83;19.33;;;12.10;99.90;;;;;;5008567;28;20456;-80
2022/03/26 08:44:08;;;;;;;33.47;18.40;;;12.10;99.90;;;;;;5006549;28;20419;-82
2022/03/26 08:46:35;;;;;;;31.90;19.50;;;12.10;99.90;;;;;;5007848;28;20479;-82
2022/03/26 08:49:01;;;;;;;30.43;18.93;;;12.20;99.90;;;;;;5006229;28;20439;-82
2022/03/26 08:51:28;;;;;;;29.70;18.43;;;12.40;99.90;;;;;;5006334;28;20438;-82
2022/03/26 08:53:55;;;;;;;27.23;19.10;;;12.20;99.90;;;;;;5006017;28;20479;-82
2022/03/26 08:56:23;;;;;;;29.43;19.57;;;12.50;99.90;;;;;;5006779;28;20973;-82
2022/03/26 08:58:49;;;;;;;29.07;18.17;;;12.90;99.90;;;;;;5004636;28;20491;-82
2022/03/26 09:01:16;;;;;;;25.80;18.20;;;13.20;99.90;;;;;;5005019;28;20756;-81
2022/03/26 09:03:50;;;;;;;29.07;17.83;;;13.40;99.90;;;;;;5004851;28;20459;-79
2022/03/26 09:06:20;;;;;;;26.80;19.60;;;13.50;99.90;;;;;;5002931;28;20423;-81
2022/03/26 09:08:47;;;;;;;24.83;18.23;;;13.20;99.90;;;;;;5002104;28;20468;-80
2022/03/26 09:11:13;;;;;;;26.50;17.53;;;13.30;99.90;;;;;;5001157;28;20448;-80
2022/03/26 09:13:45;;;;;;;30.37;17.03;;;13.30;99.90;;;;;;5001946;28;20526;-80
2022/03/26 09:16:11;;;;;;;29.70;18.03;;;12.80;99.90;;;;;;5001523;28;20473;-80
2022/03/26 09:18:39;;;;;;;24.40;17.30;;;13.00;99.90;;;;;;5000378;28;20468;-81
2022/03/26 09:21:09;;;;;;;23.13;18.23;;;12.70;99.90;;;;;;5003969;28;20427;-80
2022/03/26 09:23:52;;;;;;;23.67;17.97;;;13.10;99.90;;;;;;5006328;28;20528;-80
2022/03/26 09:26:23;;;;;;;31.27;18.13;;;12.80;99.90;;;;;;5004000;28;20473;-80
2022/03/26 09:28:51;;;;;;;28.27;15.33;;;12.80;99.90;;;;;;5009066;28;20503;-80
2022/03/26 09:31:40;;;;;;;29.37;17.83;;;13.00;99.90;;;;;;5009794;28;20778;-81
2022/03/26 09:34:17;;;;;;;22.93;16.87;;;13.30;99.90;;;;;;5008964;28;20479;-81
2022/03/26 09:36:44;;;;;;;29.50;18.00;;;;;;;;;;5002721;28;20472;-79
2022/03/26 09:39:11;;;;;;;24.97;17.63;;;;;;;;;;5005179;28;20513;-80
2022/03/26 09:44:24;;;;;;;20.50;15.10;;;14.10;99.90;;;;;;5004232;28;20449;-79
2022/03/26 09:46:52;;;;;;;24.27;16.50;;;14.20;99.90;;;;;;5008184;28;20504;-80
2022/03/26 09:49:19;;;;;;;23.70;16.00;;;;;;;;;;5008673;28;20465;-80
2022/03/26 09:51:46;;;;;;;29.63;19.60;;;;;;;;;;5008712;28;20442;-79
2022/03/26 09:54:15;;;;;;;22.53;15.50;;;;;;;;;;5007877;28;20444;-80
2022/03/26 09:56:44;;;;;;;22.33;15.50;;;14.00;99.90;;;;;;5009994;28;20499;-79
2022/03/26 09:59:10;;;;;;;25.90;15.93;;;13.70;99.90;;;;;;5008573;28;20462;-83
2022/03/26 10:01:38;;;;;;;25.37;14.43;;;14.10;99.90;;;;;;5004231;28;20931;-80
2022/03/26 10:04:13;;;;;;;23.20;14.67;;;13.70;99.90;;;;;;5001318;28;20445;-80
2022/03/26 10:06:48;;;;;;;21.43;13.20;;;13.70;99.90;;;;;;5002962;28;20437;-80
2022/03/26 10:09:25;;;;;;;18.40;12.70;;;13.50;99.90;;;;;;5004618;28;20457;-80
2022/03/26 10:11:59;;;;;;;20.23;12.27;;;13.70;99.90;;;;;;5006268;28;20440;-79
2022/03/26 10:14:36;;;;;;;21.43;13.77;;;13.60;99.90;;;;;;5002935;28;20445;-79
2022/03/26 10:17:14;;;;;;;20.63;13.63;;;13.50;99.90;;;;;;5004240;28;20500;-79
2022/03/26 10:19:45;;;;;;;24.73;14.43;;;13.30;99.90;;;;;;5005622;28;20491;-81
2022/03/26 10:22:32;;;;;;;18.60;14.00;;;13.70;99.90;;;;;;5006469;28;20442;-80
2022/03/26 10:25:00;;;;;;;20.00;13.57;;;13.60;99.90;;;;;;5006592;28;20458;-80
2022/03/26 10:27:27;;;;;;;23.77;14.70;;;13.60;99.90;;;;;;5006959;28;20415;-79
2022/03/26 10:29:56;;;;;;;21.93;13.77;;;13.80;99.90;;;;;;5007672;28;20454;-80
2022/03/26 10:32:41;;;;;;;22.90;15.30;;;14.20;99.90;;;;;;5006285;28;20452;-81
2022/03/26 10:35:10;;;;;;;22.13;14.87;;;14.10;99.90;;;;;;5005483;28;20454;-81
2022/03/26 10:37:48;;;;;;;20.83;15.73;;;14.10;99.90;;;;;;5001606;28;20491;-80
2022/03/26 10:40:23;;;;;;;22.50;16.27;;;14.20;99.90;;;;;;5003207;28;20472;-81
2022/03/26 10:42:54;;;;;;;20.93;16.10;;;14.00;99.90;;;;;;5005003;28;20482;-80
2022/03/26 10:45:21;;;;;;;23.03;16.37;;;14.00;99.90;;;;;;5002407;28;20427;-80
2022/03/26 10:47:52;;;;;;;23.27;15.60;;;14.30;99.90;;;;;;5002939;28;20479;-81
2022/03/26 10:50:19;;;;;;;22.73;16.53;;;14.60;99.90;;;;;;5000131;28;20476;-80
2022/03/26 10:52:46;;;;;;;25.43;16.70;;;14.40;99.90;;;;;;5000477;28;20452;-80
2022/03/26 10:55:14;;;;;;;26.33;16.03;;;14.60;99.90;;;;;;5008335;28;20467;-80
2022/03/26 10:57:43;;;;;;;23.93;15.07;;;14.50;99.90;;;;;;5008205;28;20454;-80
2022/03/26 11:00:11;;;;;;;27.13;15.50;;;14.10;99.90;;;;;;5005002;28;20466;-80
2022/03/26 11:02:38;;;;;;;25.00;16.27;;;13.50;99.90;;;;;;5001094;28;20503;-78
2022/03/26 11:05:07;;;;;;;30.87;16.27;;;13.80;99.90;;;;;;4994724;28;20478;-79
2022/03/26 11:07:37;;;;;;;27.50;16.70;;;13.70;99.90;;;;;;4995850;28;20451;-79
2022/03/26 11:10:05;;;;;;;27.83;16.70;;;13.70;99.90;;;;;;4999331;28;20483;-80
2022/03/26 11:12:33;;;;;;;22.90;16.30;;;13.90;99.90;;;;;;4997680;28;20431;-79
2022/03/26 11:15:02;;;;;;;24.63;17.20;;;14.20;99.90;;;;;;5005616;28;20894;-79
2022/03/26 11:17:40;;;;;;;27.00;18.57;;;14.30;99.90;;;;;;5009199;28;20508;-80
2022/03/26 11:20:23;;;;;;;27.50;16.50;;;14.40;99.90;;;;;;5007375;28;20502;-80
2022/03/26 11:23:09;;;;;;;25.00;17.03;;;14.20;99.90;;;;;;5000733;28;20462;-80
2022/03/26 11:26:04;;;;;;;27.80;16.50;;;14.30;99.90;;;;;;4999272;28;20826;-79
2022/03/26 11:28:48;;;;;;;25.77;17.80;;;13.80;99.90;;;;;;4998569;28;20447;-81
2022/03/26 11:31:32;;;;;;;22.20;14.90;;;13.60;99.90;;;;;;5000349;28;20418;-81
2022/03/26 11:34:04;;;;;;;30.90;17.50;;;13.90;99.90;;;;;;5000910;28;20442;-80
2022/03/26 11:36:32;;;;;;;24.67;17.67;;;14.00;99.90;;;;;;4999961;28;20468;-81
2022/03/26 11:39:10;;;;;;;25.30;17.50;;;13.80;99.90;;;;;;5003503;28;20482;-80
2022/03/26 11:41:36;;;;;;;22.30;17.23;;;14.10;99.90;;;;;;4997714;28;20456;-80
2022/03/26 11:44:07;;;;;;;27.47;18.93;;;14.30;99.90;;;;;;4998580;28;20459;-80
2022/03/26 11:52:22;;;;;;;25.80;18.40;;;14.60;99.90;;;;;;5006108;28;20428;-80
2022/03/26 11:54:54;;;;;;;24.30;18.60;;;14.50;99.90;;;;;;5019750;28;20438;-80
2022/03/26 11:57:25;;;;;;;26.27;18.30;;;14.60;99.90;;;;;;5020358;28;20467;-80
2022/03/26 11:59:58;;;;;;;32.33;19.63;;;14.80;99.90;;;;;;5019406;28;20583;-80
2022/03/26 12:02:27;;;;;;;26.07;18.47;;;14.30;99.90;;;;;;5019893;28;20448;-80
2022/03/26 12:04:58;;;;;;;30.90;19.87;;;14.60;99.90;;;;;;5016107;28;20893;-80
2022/03/26 12:07:29;;;;;;;32.53;22.00;;;14.40;99.90;;;;;;5007623;28;20458;-80
2022/03/26 12:10:16;;;;;;;24.10;17.70;;;14.50;99.90;;;;;;5003640;28;20987;-80
2022/03/26 12:12:52;;;;;;;29.67;19.73;;;14.50;99.90;;;;;;5003374;28;20400;-80
2022/03/26 12:15:33;;;;;;;29.37;19.73;;;14.20;99.90;;;;;;5004410;28;20954;-80
2022/03/26 12:18:11;;;;;;;29.67;19.27;;;14.30;99.90;;;;;;5004112;28;21008;-81
2022/03/26 12:20:41;;;;;;;29.47;20.27;;;14.10;99.90;;;;;;5004802;28;20460;-79
2022/03/26 12:23:12;;;;;;;30.37;22.17;;;14.10;99.90;;;;;;5004394;28;20892;-80
2022/03/26 12:25:50;;;;;;;31.20;20.30;;;14.00;99.90;;;;;;5003399;28;20511;-81
2022/03/26 12:28:32;;;;;;;33.00;21.10;;;13.60;99.90;;;;;;5006837;28;20994;-80
2022/03/26 12:31:04;;;;;;;28.93;20.70;;;14.00;99.90;;;;;;5010617;28;20448;-80
2022/03/26 12:33:39;;;;;;;30.23;18.83;;;13.70;99.90;;;;;;5010672;28;20478;-80
2022/03/26 12:36:08;;;;;;;27.07;19.70;;;13.90;99.90;;;;;;5008499;28;20430;-81
2022/03/26 12:38:38;;;;;;;33.33;21.87;;;13.80;99.90;;;;;;5009214;28;20457;-80
2022/03/26 12:41:07;;;;;;;35.00;21.97;;;13.80;99.90;;;;;;5009758;28;20453;-81
2022/03/26 12:43:34;;;;;;;33.57;20.83;;;13.70;99.90;;;;;;5007133;28;20461;-80
2022/03/26 12:46:06;;;;;;;34.47;22.00;;;13.20;99.90;;;;;;5006123;28;20541;-80
2022/03/26 12:48:33;;;;;;;33.87;21.20;;;13.50;99.90;;;;;;5005258;28;20480;-80
2022/03/26 12:51:02;;;;;;;40.17;22.60;;;13.60;99.90;;;;;;5004699;28;20460;-80